Terminal Aerodrome Forecast
Issued by NWS

Home | Current Version | Previous Version | Text Only | Print | Product List | Glossary Off
Versions: 1 2 3 4 5 6 7 8 9 10 11 12 13 14 15 16 17 18 19 20

000
FTUS43 KICT 070626 AAA
TAFSLN
TAF AMD
KSLN 070626Z 0706/0806 01011KT 5SM HZ SCT025 OVC050
      TEMPO 0706/0710 BKN025
     FM071500 07010KT P6SM BKN120
     FM080000 10010KT P6SM BKN100=

USA.gov is the U.S. government's official web portal to all federal, state and local government web resources and services.